sensor_id;sensor_type;location;lat;lon;timestamp;temperature;humidity
13711;DHT22;6927;51.256;9.410;2023-04-25T00:01:40;3.70;99.90
13711;DHT22;6927;51.256;9.410;2023-04-25T00:04:05;3.60;99.90
13711;DHT22;6927;51.256;9.410;2023-04-25T00:06:32;3.60;99.90
13711;DHT22;6927;51.256;9.410;2023-04-25T00:08:59;3.60;99.90
13711;DHT22;6927;51.256;9.410;2023-04-25T00:11:24;3.60;99.90
13711;DHT22;6927;51.256;9.410;2023-04-25T00:13:50;3.60;99.90
13711;DHT22;6927;51.256;9.410;2023-04-25T00:16:16;3.50;99.90
13711;DHT22;6927;51.256;9.410;2023-04-25T00:18:42;3.50;99.90
13711;DHT22;6927;51.256;9.410;2023-04-25T00:21:08;3.40;99.90
13711;DHT22;6927;51.256;9.410;2023-04-25T00:23:34;3.40;99.90
13711;DHT22;6927;51.256;9.410;2023-04-25T00:26:02;3.40;99.90
13711;DHT22;6927;51.256;9.410;2023-04-25T00:28:27;3.30;99.90
13711;DHT22;6927;51.256;9.410;2023-04-25T00:30:53;3.30;99.90
13711;DHT22;6927;51.256;9.410;2023-04-25T00:33:18;3.30;99.90
13711;DHT22;6927;51.256;9.410;2023-04-25T00:35:44;3.30;99.90
13711;DHT22;6927;51.256;9.410;2023-04-25T00:38:10;3.30;99.90
13711;DHT22;6927;51.256;9.410;2023-04-25T00:40:35;3.30;99.90
13711;DHT22;6927;51.256;9.410;2023-04-25T00:43:01;3.30;99.90
13711;DHT22;6927;51.256;9.410;2023-04-25T00:45:30;3.20;99.90
13711;DHT22;6927;51.256;9.410;2023-04-25T00:47:56;3.20;99.90
13711;DHT22;6927;51.256;9.410;2023-04-25T00:50:22;3.20;99.90
13711;DHT22;6927;51.256;9.410;2023-04-25T00:52:48;3.20;99.90
13711;DHT22;6927;51.256;9.410;2023-04-25T00:55:14;3.20;99.90
13711;DHT22;6927;51.256;9.410;2023-04-25T00:57:42;3.20;99.90
13711;DHT22;6927;51.256;9.410;2023-04-25T01:00:08;3.20;99.90
13711;DHT22;6927;51.256;9.410;2023-04-25T01:02:40;3.20;99.90
13711;DHT22;6927;51.256;9.410;2023-04-25T01:05:06;3.20;99.90
13711;DHT22;6927;51.256;9.410;2023-04-25T01:07:32;3.10;99.90
13711;DHT22;6927;51.256;9.410;2023-04-25T01:09:57;3.10;99.90
13711;DHT22;6927;51.256;9.410;2023-04-25T01:12:23;3.10;99.90
13711;DHT22;6927;51.256;9.410;2023-04-25T01:14:49;3.10;99.90
13711;DHT22;6927;51.256;9.410;2023-04-25T01:17:15;3.10;99.90
13711;DHT22;6927;51.256;9.410;2023-04-25T01:19:41;3.00;99.90
13711;DHT22;6927;51.256;9.410;2023-04-25T01:22:07;3.10;99.90
13711;DHT22;6927;51.256;9.410;2023-04-25T01:24:35;3.00;99.90
13711;DHT22;6927;51.256;9.410;2023-04-25T01:27:02;2.90;99.90
13711;DHT22;6927;51.256;9.410;2023-04-25T01:29:28;2.90;99.90
13711;DHT22;6927;51.256;9.410;2023-04-25T01:31:54;2.90;99.90
13711;DHT22;6927;51.256;9.410;2023-04-25T01:34:20;2.90;99.90
13711;DHT22;6927;51.256;9.410;2023-04-25T01:36:49;2.90;99.90
13711;DHT22;6927;51.256;9.410;2023-04-25T01:39:16;2.90;99.90
13711;DHT22;6927;51.256;9.410;2023-04-25T01:41:42;2.90;99.90
13711;DHT22;6927;51.256;9.410;2023-04-25T01:44:08;2.80;99.90
13711;DHT22;6927;51.256;9.410;2023-04-25T01:46:34;2.80;99.90
13711;DHT22;6927;51.256;9.410;2023-04-25T01:49:00;2.90;99.90
13711;DHT22;6927;51.256;9.410;2023-04-25T01:51:25;2.80;99.90
13711;DHT22;6927;51.256;9.410;2023-04-25T01:53:51;2.80;99.90
13711;DHT22;6927;51.256;9.410;2023-04-25T01:56:18;2.80;99.90
13711;DHT22;6927;51.256;9.410;2023-04-25T01:58:46;2.80;99.90
13711;DHT22;6927;51.256;9.410;2023-04-25T02:01:11;2.80;99.90
13711;DHT22;6927;51.256;9.410;2023-04-25T02:03:37;2.80;99.90
13711;DHT22;6927;51.256;9.410;2023-04-25T02:06:03;2.80;99.90
13711;DHT22;6927;51.256;9.410;2023-04-25T02:08:28;2.80;99.90
13711;DHT22;6927;51.256;9.410;2023-04-25T02:10:55;2.80;99.90
13711;DHT22;6927;51.256;9.410;2023-04-25T02:13:21;2.70;99.90
13711;DHT22;6927;51.256;9.410;2023-04-25T02:15:46;2.70;99.90
13711;DHT22;6927;51.256;9.410;2023-04-25T02:18:12;2.70;99.90
13711;DHT22;6927;51.256;9.410;2023-04-25T02:20:37;2.70;99.90
13711;DHT22;6927;51.256;9.410;2023-04-25T02:23:03;2.70;99.90
13711;DHT22;6927;51.256;9.410;2023-04-25T02:25:29;2.70;99.90
13711;DHT22;6927;51.256;9.410;2023-04-25T02:27:55;2.70;99.90
13711;DHT22;6927;51.256;9.410;2023-04-25T02:30:20;2.70;99.90
13711;DHT22;6927;51.256;9.410;2023-04-25T02:32:46;2.70;99.90
13711;DHT22;6927;51.256;9.410;2023-04-25T02:35:12;2.70;99.90
13711;DHT22;6927;51.256;9.410;2023-04-25T02:37:39;2.70;99.90
13711;DHT22;6927;51.256;9.410;2023-04-25T02:40:05;2.70;99.90
13711;DHT22;6927;51.256;9.410;2023-04-25T02:42:31;2.80;99.90
13711;DHT22;6927;51.256;9.410;2023-04-25T02:44:57;2.70;99.90
13711;DHT22;6927;51.256;9.410;2023-04-25T02:47:22;2.70;99.90
13711;DHT22;6927;51.256;9.410;2023-04-25T02:49:48;2.70;99.90
13711;DHT22;6927;51.256;9.410;2023-04-25T02:52:13;2.70;99.90
13711;DHT22;6927;51.256;9.410;2023-04-25T02:54:40;2.80;99.90
13711;DHT22;6927;51.256;9.410;2023-04-25T02:57:06;2.80;99.90
13711;DHT22;6927;51.256;9.410;2023-04-25T02:59:31;2.80;99.90
13711;DHT22;6927;51.256;9.410;2023-04-25T03:01:57;2.90;99.90
13711;DHT22;6927;51.256;9.410;2023-04-25T03:04:23;3.00;99.90
13711;DHT22;6927;51.256;9.410;2023-04-25T03:06:49;3.00;99.90
13711;DHT22;6927;51.256;9.410;2023-04-25T03:09:15;3.10;99.90
13711;DHT22;6927;51.256;9.410;2023-04-25T03:11:41;3.10;99.90
13711;DHT22;6927;51.256;9.410;2023-04-25T03:14:07;3.20;99.90
13711;DHT22;6927;51.256;9.410;2023-04-25T03:16:32;3.30;99.90
13711;DHT22;6927;51.256;9.410;2023-04-25T03:18:58;3.40;99.90
13711;DHT22;6927;51.256;9.410;2023-04-25T03:21:23;3.50;99.90
13711;DHT22;6927;51.256;9.410;2023-04-25T03:23:49;3.60;99.90
13711;DHT22;6927;51.256;9.410;2023-04-25T03:26:15;3.60;99.90
13711;DHT22;6927;51.256;9.410;2023-04-25T03:28:41;3.80;99.90
13711;DHT22;6927;51.256;9.410;2023-04-25T03:31:06;3.90;99.90
13711;DHT22;6927;51.256;9.410;2023-04-25T03:33:32;3.90;99.90
13711;DHT22;6927;51.256;9.410;2023-04-25T03:35:57;4.00;99.90
13711;DHT22;6927;51.256;9.410;2023-04-25T03:38:23;4.10;99.90
13711;DHT22;6927;51.256;9.410;2023-04-25T03:40:50;4.10;99.90
13711;DHT22;6927;51.256;9.410;2023-04-25T03:43:16;4.30;99.90
13711;DHT22;6927;51.256;9.410;2023-04-25T03:45:42;4.40;99.90
13711;DHT22;6927;51.256;9.410;2023-04-25T03:48:07;4.50;99.90
13711;DHT22;6927;51.256;9.410;2023-04-25T03:50:33;4.50;99.90
13711;DHT22;6927;51.256;9.410;2023-04-25T03:52:59;4.50;99.90
13711;DHT22;6927;51.256;9.410;2023-04-25T03:55:24;4.50;99.90
13711;DHT22;6927;51.256;9.410;2023-04-25T03:57:50;4.60;99.90
13711;DHT22;6927;51.256;9.410;2023-04-25T04:00:15;4.60;99.90
13711;DHT22;6927;51.256;9.410;2023-04-25T04:02:41;4.60;99.90
13711;DHT22;6927;51.256;9.410;2023-04-25T04:05:07;4.70;99.90
13711;DHT22;6927;51.256;9.410;2023-04-25T04:07:33;4.70;99.90
13711;DHT22;6927;51.256;9.410;2023-04-25T04:09:59;4.70;99.90
13711;DHT22;6927;51.256;9.410;2023-04-25T04:12:24;4.70;99.90
13711;DHT22;6927;51.256;9.410;2023-04-25T04:14:50;4.80;99.90
13711;DHT22;6927;51.256;9.410;2023-04-25T04:17:15;4.70;99.90
13711;DHT22;6927;51.256;9.410;2023-04-25T04:19:41;4.80;99.90
13711;DHT22;6927;51.256;9.410;2023-04-25T04:22:07;4.80;99.90
13711;DHT22;6927;51.256;9.410;2023-04-25T04:24:32;4.80;99.90
13711;DHT22;6927;51.256;9.410;2023-04-25T04:26:58;4.80;99.90
13711;DHT22;6927;51.256;9.410;2023-04-25T04:29:24;4.80;99.90
13711;DHT22;6927;51.256;9.410;2023-04-25T04:31:50;4.80;99.90
13711;DHT22;6927;51.256;9.410;2023-04-25T04:34:17;4.80;99.90
13711;DHT22;6927;51.256;9.410;2023-04-25T04:36:44;4.80;99.90
13711;DHT22;6927;51.256;9.410;2023-04-25T04:39:11;4.90;99.90
13711;DHT22;6927;51.256;9.410;2023-04-25T04:41:38;4.90;99.70
13711;DHT22;6927;51.256;9.410;2023-04-25T04:44:04;4.90;99.90
13711;DHT22;6927;51.256;9.410;2023-04-25T04:46:32;5.00;99.90
13711;DHT22;6927;51.256;9.410;2023-04-25T04:49:05;5.00;99.90
13711;DHT22;6927;51.256;9.410;2023-04-25T04:51:31;5.00;99.90
13711;DHT22;6927;51.256;9.410;2023-04-25T04:53:57;5.10;99.90
13711;DHT22;6927;51.256;9.410;2023-04-25T04:56:24;5.00;75.40
13711;DHT22;6927;51.256;9.410;2023-04-25T04:58:51;5.00;56.70
13711;DHT22;6927;51.256;9.410;2023-04-25T05:01:17;5.10;78.70
13711;DHT22;6927;51.256;9.410;2023-04-25T05:03:43;5.20;99.90
13711;DHT22;6927;51.256;9.410;2023-04-25T05:06:09;5.20;99.90
13711;DHT22;6927;51.256;9.410;2023-04-25T05:08:39;5.20;90.90
13711;DHT22;6927;51.256;9.410;2023-04-25T05:11:07;5.20;99.90
13711;DHT22;6927;51.256;9.410;2023-04-25T05:13:33;5.20;99.90
13711;DHT22;6927;51.256;9.410;2023-04-25T05:15:59;5.30;99.90
13711;DHT22;6927;51.256;9.410;2023-04-25T05:18:24;5.30;99.60
13711;DHT22;6927;51.256;9.410;2023-04-25T05:20:50;5.30;25.70
13711;DHT22;6927;51.256;9.410;2023-04-25T05:23:15;5.30;1.00
13711;DHT22;6927;51.256;9.410;2023-04-25T05:25:41;5.40;13.00
13711;DHT22;6927;51.256;9.410;2023-04-25T05:28:07;5.40;21.20
13711;DHT22;6927;51.256;9.410;2023-04-25T05:30:34;5.40;58.30
13711;DHT22;6927;51.256;9.410;2023-04-25T05:32:59;5.40;99.90
13711;DHT22;6927;51.256;9.410;2023-04-25T05:35:25;5.40;99.90
13711;DHT22;6927;51.256;9.410;2023-04-25T05:37:51;5.40;99.90
13711;DHT22;6927;51.256;9.410;2023-04-25T05:40:16;5.40;99.90
13711;DHT22;6927;51.256;9.410;2023-04-25T05:42:42;5.50;99.90
13711;DHT22;6927;51.256;9.410;2023-04-25T05:45:08;5.60;99.90
13711;DHT22;6927;51.256;9.410;2023-04-25T05:47:34;5.60;99.90
13711;DHT22;6927;51.256;9.410;2023-04-25T05:49:59;5.70;99.90
13711;DHT22;6927;51.256;9.410;2023-04-25T05:52:25;5.70;95.80
13711;DHT22;6927;51.256;9.410;2023-04-25T05:54:50;5.70;99.90
13711;DHT22;6927;51.256;9.410;2023-04-25T05:57:23;5.90;99.90
13711;DHT22;6927;51.256;9.410;2023-04-25T05:59:49;6.00;99.90
13711;DHT22;6927;51.256;9.410;2023-04-25T06:02:15;6.10;99.90
13711;DHT22;6927;51.256;9.410;2023-04-25T06:04:40;6.30;99.90
13711;DHT22;6927;51.256;9.410;2023-04-25T06:07:06;6.30;99.90
13711;DHT22;6927;51.256;9.410;2023-04-25T06:09:31;6.40;99.90
13711;DHT22;6927;51.256;9.410;2023-04-25T06:11:57;6.50;99.90
13711;DHT22;6927;51.256;9.410;2023-04-25T06:14:22;6.50;99.90
13711;DHT22;6927;51.256;9.410;2023-04-25T06:16:48;6.60;99.90
13711;DHT22;6927;51.256;9.410;2023-04-25T06:19:13;6.50;20.80
13711;DHT22;6927;51.256;9.410;2023-04-25T06:21:39;6.50;36.70
13711;DHT22;6927;51.256;9.410;2023-04-25T06:24:05;6.50;89.10
13711;DHT22;6927;51.256;9.410;2023-04-25T06:26:30;6.50;99.90
13711;DHT22;6927;51.256;9.410;2023-04-25T06:28:56;6.50;55.00
13711;DHT22;6927;51.256;9.410;2023-04-25T06:31:21;6.50;26.00
13711;DHT22;6927;51.256;9.410;2023-04-25T06:33:47;6.40;22.90
13711;DHT22;6927;51.256;9.410;2023-04-25T06:36:13;6.50;1.00
13711;DHT22;6927;51.256;9.410;2023-04-25T06:38:39;6.60;1.00
13711;DHT22;6927;51.256;9.410;2023-04-25T06:41:05;6.60;1.00
13711;DHT22;6927;51.256;9.410;2023-04-25T06:43:30;6.60;1.00
13711;DHT22;6927;51.256;9.410;2023-04-25T06:45:59;6.70;1.00
13711;DHT22;6927;51.256;9.410;2023-04-25T06:48:26;6.60;1.00
13711;DHT22;6927;51.256;9.410;2023-04-25T06:50:51;6.60;1.00
13711;DHT22;6927;51.256;9.410;2023-04-25T06:53:17;6.70;1.00
13711;DHT22;6927;51.256;9.410;2023-04-25T06:55:42;6.90;1.00
13711;DHT22;6927;51.256;9.410;2023-04-25T06:58:08;7.00;1.00
13711;DHT22;6927;51.256;9.410;2023-04-25T07:00:34;7.10;99.90
13711;DHT22;6927;51.256;9.410;2023-04-25T07:03:00;7.30;19.80
13711;DHT22;6927;51.256;9.410;2023-04-25T07:05:25;7.30;1.00
13711;DHT22;6927;51.256;9.410;2023-04-25T07:07:51;7.50;1.00
13711;DHT22;6927;51.256;9.410;2023-04-25T07:10:17;7.50;99.90
13711;DHT22;6927;51.256;9.410;2023-04-25T07:12:42;7.50;99.90
13711;DHT22;6927;51.256;9.410;2023-04-25T07:15:08;7.50;1.00
13711;DHT22;6927;51.256;9.410;2023-04-25T07:17:41;7.40;1.00
13711;DHT22;6927;51.256;9.410;2023-04-25T07:20:07;7.40;99.90
13711;DHT22;6927;51.256;9.410;2023-04-25T07:22:34;7.50;1.00
13711;DHT22;6927;51.256;9.410;2023-04-25T07:25:00;7.60;1.00
13711;DHT22;6927;51.256;9.410;2023-04-25T07:27:26;7.70;99.90
13711;DHT22;6927;51.256;9.410;2023-04-25T07:29:51;7.70;1.00
13711;DHT22;6927;51.256;9.410;2023-04-25T07:32:17;7.70;99.90
13711;DHT22;6927;51.256;9.410;2023-04-25T07:34:43;7.80;1.00
13711;DHT22;6927;51.256;9.410;2023-04-25T07:37:08;8.10;1.00
13711;DHT22;6927;51.256;9.410;2023-04-25T07:39:34;8.30;99.90
13711;DHT22;6927;51.256;9.410;2023-04-25T07:42:00;8.50;99.90
13711;DHT22;6927;51.256;9.410;2023-04-25T07:44:27;8.80;1.00
13711;DHT22;6927;51.256;9.410;2023-04-25T07:46:53;9.10;99.90
13711;DHT22;6927;51.256;9.410;2023-04-25T07:49:18;9.30;99.90
13711;DHT22;6927;51.256;9.410;2023-04-25T07:51:44;9.40;99.90
13711;DHT22;6927;51.256;9.410;2023-04-25T07:54:12;9.20;99.90
13711;DHT22;6927;51.256;9.410;2023-04-25T07:56:37;9.00;99.90
13711;DHT22;6927;51.256;9.410;2023-04-25T07:59:03;9.20;99.90
13711;DHT22;6927;51.256;9.410;2023-04-25T08:01:28;9.40;99.90
13711;DHT22;6927;51.256;9.410;2023-04-25T08:03:54;9.90;99.90
13711;DHT22;6927;51.256;9.410;2023-04-25T08:06:19;10.10;99.90
13711;DHT22;6927;51.256;9.410;2023-04-25T08:08:45;10.20;99.90
13711;DHT22;6927;51.256;9.410;2023-04-25T08:11:11;10.00;99.90
13711;DHT22;6927;51.256;9.410;2023-04-25T08:13:36;9.80;99.90
13711;DHT22;6927;51.256;9.410;2023-04-25T08:16:02;10.30;76.50
13711;DHT22;6927;51.256;9.410;2023-04-25T08:18:27;10.50;60.10
13711;DHT22;6927;51.256;9.410;2023-04-25T08:20:53;10.40;23.00
13711;DHT22;6927;51.256;9.410;2023-04-25T08:23:18;10.10;5.90
13711;DHT22;6927;51.256;9.410;2023-04-25T08:25:44;9.60;8.00
13711;DHT22;6927;51.256;9.410;2023-04-25T08:28:10;9.20;29.60
13711;DHT22;6927;51.256;9.410;2023-04-25T08:30:36;8.70;12.60
13711;DHT22;6927;51.256;9.410;2023-04-25T08:33:02;8.50;25.80
13711;DHT22;6927;51.256;9.410;2023-04-25T08:35:28;8.10;99.90
13711;DHT22;6927;51.256;9.410;2023-04-25T08:37:53;7.70;99.90
13711;DHT22;6927;51.256;9.410;2023-04-25T08:40:22;7.50;99.90
13711;DHT22;6927;51.256;9.410;2023-04-25T08:42:53;7.30;1.00
13711;DHT22;6927;51.256;9.410;2023-04-25T08:45:18;7.20;99.90
13711;DHT22;6927;51.256;9.410;2023-04-25T08:47:45;7.20;99.90
13711;DHT22;6927;51.256;9.410;2023-04-25T08:50:11;7.30;99.90
13711;DHT22;6927;51.256;9.410;2023-04-25T08:52:43;7.40;1.00
13711;DHT22;6927;51.256;9.410;2023-04-25T08:55:09;7.60;99.90
13711;DHT22;6927;51.256;9.410;2023-04-25T08:57:35;8.00;1.00
13711;DHT22;6927;51.256;9.410;2023-04-25T09:00:01;8.30;1.00
13711;DHT22;6927;51.256;9.410;2023-04-25T09:02:28;8.50;99.90
13711;DHT22;6927;51.256;9.410;2023-04-25T09:04:54;8.70;99.90
13711;DHT22;6927;51.256;9.410;2023-04-25T09:07:21;8.70;99.90
13711;DHT22;6927;51.256;9.410;2023-04-25T09:09:47;8.70;99.90
13711;DHT22;6927;51.256;9.410;2023-04-25T09:12:13;8.80;99.90
13711;DHT22;6927;51.256;9.410;2023-04-25T09:14:38;9.00;99.90
13711;DHT22;6927;51.256;9.410;2023-04-25T09:17:04;9.60;99.90
13711;DHT22;6927;51.256;9.410;2023-04-25T09:19:35;10.30;99.90
13711;DHT22;6927;51.256;9.410;2023-04-25T09:22:03;10.70;99.90
13711;DHT22;6927;51.256;9.410;2023-04-25T09:27:07;10.60;99.90
13711;DHT22;6927;51.256;9.410;2023-04-25T09:29:34;10.50;84.80
13711;DHT22;6927;51.256;9.410;2023-04-25T09:32:18;10.60;78.50
13711;DHT22;6927;51.256;9.410;2023-04-25T09:35:05;10.80;59.10
13711;DHT22;6927;51.256;9.410;2023-04-25T09:37:30;11.40;21.60
13711;DHT22;6927;51.256;9.410;2023-04-25T09:39:58;11.70;33.40
13711;DHT22;6927;51.256;9.410;2023-04-25T09:42:31;11.70;5.30
13711;DHT22;6927;51.256;9.410;2023-04-25T09:44:58;11.60;1.80
13711;DHT22;6927;51.256;9.410;2023-04-25T09:47:25;11.40;1.00
13711;DHT22;6927;51.256;9.410;2023-04-25T09:49:52;11.00;1.00
13711;DHT22;6927;51.256;9.410;2023-04-25T09:52:20;10.70;1.00
13711;DHT22;6927;51.256;9.410;2023-04-25T09:54:48;10.40;1.00
13711;DHT22;6927;51.256;9.410;2023-04-25T09:57:16;9.90;1.00
13711;DHT22;6927;51.256;9.410;2023-04-25T09:59:53;9.40;1.00
13711;DHT22;6927;51.256;9.410;2023-04-25T10:02:24;9.30;1.00
13711;DHT22;6927;51.256;9.410;2023-04-25T10:04:52;9.10;1.00
13711;DHT22;6927;51.256;9.410;2023-04-25T10:07:24;9.20;1.00
13711;DHT22;6927;51.256;9.410;2023-04-25T10:10:00;9.20;1.00
13711;DHT22;6927;51.256;9.410;2023-04-25T10:12:28;9.30;1.00
13711;DHT22;6927;51.256;9.410;2023-04-25T10:14:54;9.50;1.00
13711;DHT22;6927;51.256;9.410;2023-04-25T10:17:21;10.40;1.00
13711;DHT22;6927;51.256;9.410;2023-04-25T10:19:49;11.60;1.00
13711;DHT22;6927;51.256;9.410;2023-04-25T10:22:39;13.40;1.00
13711;DHT22;6927;51.256;9.410;2023-04-25T10:25:07;14.20;1.00
13711;DHT22;6927;51.256;9.410;2023-04-25T10:27:34;13.00;1.00
13711;DHT22;6927;51.256;9.410;2023-04-25T10:30:15;12.00;1.00
13711;DHT22;6927;51.256;9.410;2023-04-25T10:32:42;11.40;1.00
13711;DHT22;6927;51.256;9.410;2023-04-25T10:35:28;10.90;1.00
13711;DHT22;6927;51.256;9.410;2023-04-25T10:38:05;10.60;1.00
13711;DHT22;6927;51.256;9.410;2023-04-25T10:40:32;10.40;1.00
13711;DHT22;6927;51.256;9.410;2023-04-25T10:46:01;10.10;1.00
13711;DHT22;6927;51.256;9.410;2023-04-25T10:48:29;9.80;1.00
13711;DHT22;6927;51.256;9.410;2023-04-25T10:51:08;9.70;1.00
13711;DHT22;6927;51.256;9.410;2023-04-25T10:53:34;9.70;1.00
13711;DHT22;6927;51.256;9.410;2023-04-25T10:56:00;9.50;1.00
13711;DHT22;6927;51.256;9.410;2023-04-25T10:58:26;9.60;1.00
13711;DHT22;6927;51.256;9.410;2023-04-25T11:00:52;9.50;1.00
13711;DHT22;6927;51.256;9.410;2023-04-25T11:03:21;9.30;1.00
13711;DHT22;6927;51.256;9.410;2023-04-25T11:05:52;9.30;1.00
13711;DHT22;6927;51.256;9.410;2023-04-25T11:08:37;9.40;1.00
13711;DHT22;6927;51.256;9.410;2023-04-25T11:11:06;9.60;1.00
13711;DHT22;6927;51.256;9.410;2023-04-25T11:13:36;9.70;1.00
13711;DHT22;6927;51.256;9.410;2023-04-25T11:16:07;9.80;1.00
13711;DHT22;6927;51.256;9.410;2023-04-25T11:18:33;10.00;1.00
13711;DHT22;6927;51.256;9.410;2023-04-25T11:21:00;10.20;1.00
13711;DHT22;6927;51.256;9.410;2023-04-25T11:23:26;10.30;1.00
13711;DHT22;6927;51.256;9.410;2023-04-25T11:25:52;10.30;1.00
13711;DHT22;6927;51.256;9.410;2023-04-25T11:28:29;10.40;1.00
13711;DHT22;6927;51.256;9.410;2023-04-25T11:31:24;10.80;1.00
13711;DHT22;6927;51.256;9.410;2023-04-25T11:33:57;11.30;1.00
13711;DHT22;6927;51.256;9.410;2023-04-25T11:36:43;11.20;1.00
13711;DHT22;6927;51.256;9.410;2023-04-25T11:39:15;11.00;1.00
13711;DHT22;6927;51.256;9.410;2023-04-25T11:41:47;10.60;1.00
13711;DHT22;6927;51.256;9.410;2023-04-25T11:44:26;10.40;1.00
13711;DHT22;6927;51.256;9.410;2023-04-25T11:47:13;9.90;1.00
13711;DHT22;6927;51.256;9.410;2023-04-25T11:49:41;9.70;1.00
13711;DHT22;6927;51.256;9.410;2023-04-25T11:52:07;9.50;1.00
13711;DHT22;6927;51.256;9.410;2023-04-25T11:54:35;9.40;1.00
13711;DHT22;6927;51.256;9.410;2023-04-25T11:57:01;9.40;1.00
13711;DHT22;6927;51.256;9.410;2023-04-25T11:59:27;9.30;1.00
13711;DHT22;6927;51.256;9.410;2023-04-25T12:02:03;9.20;1.00
13711;DHT22;6927;51.256;9.410;2023-04-25T12:04:30;9.40;1.00
13711;DHT22;6927;51.256;9.410;2023-04-25T12:07:00;9.60;1.00
13711;DHT22;6927;51.256;9.410;2023-04-25T12:09:33;9.60;1.00
13711;DHT22;6927;51.256;9.410;2023-04-25T12:12:00;9.60;1.00
13711;DHT22;6927;51.256;9.410;2023-04-25T12:14:32;9.60;1.00
13711;DHT22;6927;51.256;9.410;2023-04-25T12:16:59;9.50;1.00
13711;DHT22;6927;51.256;9.410;2023-04-25T12:19:26;9.60;1.00
13711;DHT22;6927;51.256;9.410;2023-04-25T12:21:56;9.70;1.00
13711;DHT22;6927;51.256;9.410;2023-04-25T12:24:24;9.90;1.00
13711;DHT22;6927;51.256;9.410;2023-04-25T12:27:03;10.30;1.00
13711;DHT22;6927;51.256;9.410;2023-04-25T12:29:31;11.10;1.00
13711;DHT22;6927;51.256;9.410;2023-04-25T12:31:57;12.10;1.00
13711;DHT22;6927;51.256;9.410;2023-04-25T12:34:23;13.00;1.00
13711;DHT22;6927;51.256;9.410;2023-04-25T12:36:50;13.50;1.00
13711;DHT22;6927;51.256;9.410;2023-04-25T12:39:21;13.80;1.00
13711;DHT22;6927;51.256;9.410;2023-04-25T12:41:47;13.20;1.00
13711;DHT22;6927;51.256;9.410;2023-04-25T12:44:13;12.20;1.00
13711;DHT22;6927;51.256;9.410;2023-04-25T12:46:40;11.60;1.00
13711;DHT22;6927;51.256;9.410;2023-04-25T12:49:06;11.20;1.00
13711;DHT22;6927;51.256;9.410;2023-04-25T12:51:33;10.90;1.00
13711;DHT22;6927;51.256;9.410;2023-04-25T12:53:59;10.60;1.00
13711;DHT22;6927;51.256;9.410;2023-04-25T12:56:26;10.10;1.00
13711;DHT22;6927;51.256;9.410;2023-04-25T12:58:53;9.80;1.00
13711;DHT22;6927;51.256;9.410;2023-04-25T13:01:19;9.70;1.00
13711;DHT22;6927;51.256;9.410;2023-04-25T13:03:45;9.50;1.00
13711;DHT22;6927;51.256;9.410;2023-04-25T13:06:10;9.50;1.00
13711;DHT22;6927;51.256;9.410;2023-04-25T13:08:36;9.30;1.00
13711;DHT22;6927;51.256;9.410;2023-04-25T13:11:03;9.40;1.00
13711;DHT22;6927;51.256;9.410;2023-04-25T13:13:29;9.30;1.00
13711;DHT22;6927;51.256;9.410;2023-04-25T13:15:55;9.20;1.00
13711;DHT22;6927;51.256;9.410;2023-04-25T13:18:20;9.40;1.00
13711;DHT22;6927;51.256;9.410;2023-04-25T13:20:46;9.40;1.00
13711;DHT22;6927;51.256;9.410;2023-04-25T13:23:12;9.50;1.00
13711;DHT22;6927;51.256;9.410;2023-04-25T13:25:37;9.70;1.00
13711;DHT22;6927;51.256;9.410;2023-04-25T13:28:03;9.90;1.00
13711;DHT22;6927;51.256;9.410;2023-04-25T13:30:29;10.10;1.00
13711;DHT22;6927;51.256;9.410;2023-04-25T13:32:54;10.30;1.00
13711;DHT22;6927;51.256;9.410;2023-04-25T13:35:22;10.80;1.00
13711;DHT22;6927;51.256;9.410;2023-04-25T13:37:47;11.30;1.00
13711;DHT22;6927;51.256;9.410;2023-04-25T13:40:13;12.00;1.00
13711;DHT22;6927;51.256;9.410;2023-04-25T13:42:39;12.30;1.00
13711;DHT22;6927;51.256;9.410;2023-04-25T13:45:06;11.80;1.00
13711;DHT22;6927;51.256;9.410;2023-04-25T13:47:32;11.40;1.00
13711;DHT22;6927;51.256;9.410;2023-04-25T13:49:58;11.50;1.00
13711;DHT22;6927;51.256;9.410;2023-04-25T13:52:23;11.50;1.00
13711;DHT22;6927;51.256;9.410;2023-04-25T13:54:50;11.20;1.00
13711;DHT22;6927;51.256;9.410;2023-04-25T13:57:16;10.80;1.00
13711;DHT22;6927;51.256;9.410;2023-04-25T13:59:41;10.70;1.00
13711;DHT22;6927;51.256;9.410;2023-04-25T14:02:07;10.50;1.00
13711;DHT22;6927;51.256;9.410;2023-04-25T14:04:33;10.10;1.00
13711;DHT22;6927;51.256;9.410;2023-04-25T14:06:58;9.90;1.00
13711;DHT22;6927;51.256;9.410;2023-04-25T14:09:25;9.80;1.00
13711;DHT22;6927;51.256;9.410;2023-04-25T14:11:52;9.80;1.00
13711;DHT22;6927;51.256;9.410;2023-04-25T14:14:19;9.70;1.00
13711;DHT22;6927;51.256;9.410;2023-04-25T14:16:44;9.70;1.00
13711;DHT22;6927;51.256;9.410;2023-04-25T14:19:10;9.70;1.00
13711;DHT22;6927;51.256;9.410;2023-04-25T14:21:36;9.60;1.00
13711;DHT22;6927;51.256;9.410;2023-04-25T14:24:02;9.60;1.00
13711;DHT22;6927;51.256;9.410;2023-04-25T14:26:27;9.60;1.00
13711;DHT22;6927;51.256;9.410;2023-04-25T14:28:53;9.50;1.00
13711;DHT22;6927;51.256;9.410;2023-04-25T14:31:18;9.60;1.00
13711;DHT22;6927;51.256;9.410;2023-04-25T14:33:44;9.60;1.00
13711;DHT22;6927;51.256;9.410;2023-04-25T14:36:11;9.60;1.00
13711;DHT22;6927;51.256;9.410;2023-04-25T14:38:36;9.60;1.00
13711;DHT22;6927;51.256;9.410;2023-04-25T14:41:02;9.60;1.00
13711;DHT22;6927;51.256;9.410;2023-04-25T14:43:27;9.60;1.00
13711;DHT22;6927;51.256;9.410;2023-04-25T14:45:53;9.70;1.00
13711;DHT22;6927;51.256;9.410;2023-04-25T14:48:19;9.60;1.00
13711;DHT22;6927;51.256;9.410;2023-04-25T14:50:45;9.60;1.00
13711;DHT22;6927;51.256;9.410;2023-04-25T14:53:11;9.40;1.00
13711;DHT22;6927;51.256;9.410;2023-04-25T14:55:37;9.40;1.00
13711;DHT22;6927;51.256;9.410;2023-04-25T14:58:02;9.60;1.00
13711;DHT22;6927;51.256;9.410;2023-04-25T15:00:28;10.00;1.00
13711;DHT22;6927;51.256;9.410;2023-04-25T15:02:56;10.30;1.00
13711;DHT22;6927;51.256;9.410;2023-04-25T15:05:22;10.60;1.00
13711;DHT22;6927;51.256;9.410;2023-04-25T15:07:48;10.80;1.00
13711;DHT22;6927;51.256;9.410;2023-04-25T15:10:13;10.90;1.00
13711;DHT22;6927;51.256;9.410;2023-04-25T15:12:42;10.80;1.00
13711;DHT22;6927;51.256;9.410;2023-04-25T15:15:08;10.70;1.00
13711;DHT22;6927;51.256;9.410;2023-04-25T15:17:41;10.50;1.00
13711;DHT22;6927;51.256;9.410;2023-04-25T15:20:09;10.60;1.00
13711;DHT22;6927;51.256;9.410;2023-04-25T15:22:39;10.60;1.00
13711;DHT22;6927;51.256;9.410;2023-04-25T15:25:06;10.60;1.00
13711;DHT22;6927;51.256;9.410;2023-04-25T15:27:33;10.30;1.00
13711;DHT22;6927;51.256;9.410;2023-04-25T15:29:59;10.00;1.00
13711;DHT22;6927;51.256;9.410;2023-04-25T15:32:25;9.70;1.00
13711;DHT22;6927;51.256;9.410;2023-04-25T15:34:51;9.70;1.00
13711;DHT22;6927;51.256;9.410;2023-04-25T15:37:17;9.70;1.00
13711;DHT22;6927;51.256;9.410;2023-04-25T15:39:44;9.60;1.00
13711;DHT22;6927;51.256;9.410;2023-04-25T15:42:09;9.50;1.00
13711;DHT22;6927;51.256;9.410;2023-04-25T15:44:35;9.40;1.00
13711;DHT22;6927;51.256;9.410;2023-04-25T15:47:00;9.20;1.00
13711;DHT22;6927;51.256;9.410;2023-04-25T15:49:26;9.00;1.00
13711;DHT22;6927;51.256;9.410;2023-04-25T15:51:53;9.10;1.00
13711;DHT22;6927;51.256;9.410;2023-04-25T15:54:18;9.20;1.00
13711;DHT22;6927;51.256;9.410;2023-04-25T15:56:44;9.30;1.00
13711;DHT22;6927;51.256;9.410;2023-04-25T15:59:10;9.40;1.00
13711;DHT22;6927;51.256;9.410;2023-04-25T16:01:36;9.50;1.00
13711;DHT22;6927;51.256;9.410;2023-04-25T16:04:02;9.80;1.00
13711;DHT22;6927;51.256;9.410;2023-04-25T16:06:28;10.10;1.00
13711;DHT22;6927;51.256;9.410;2023-04-25T16:08:54;10.50;1.00